Daikoku — JD3247 — position and weather

sailwx.info

Track history (hours):
 
Tides and Currents Weather Stations Pressure Air Temp Water Temp Dewpoint Dewpoint Depression Visibility Wind Speed Wind Dir Waves Ship Positions

Daikoku

Last reported at 2016-Sep-26 19:33 UTC. Time now 2016-Sep-27 01:57 UTC.
Position N 34°58' E 139°27'.

Length 95 m; draft 4.2 m.

Type: Cargo ship. MMSI: 431003009.

Date/timePositionNaut miles runAvg speedWind from/ knotsBaromVisibWave heightAir tempDewpointWater temp
2016-Sep-26 19:33N 34°58' E 139°27'28 7.1
2016-Sep-26 15:31N 35°24' E 139°41'0 0.1
2016-Sep-26 13:33N 35°24' E 139°41'3 1.6
2016-Sep-26 11:33N 35°22' E 139°44'0 0.0
2016-Sep-26 08:15N 35°22' E 139°44'0 0.0
2016-Sep-26 02:33N 35°22' E 139°44'0 0.0
2016-Sep-26 01:33N 35°22' E 139°44'0 0.1
2016-Sep-26 00:33N 35°22' E 139°44'0 0.0
2016-Sep-25 21:33N 35°22' E 139°44'9 2.1
2016-Sep-25 17:33N 35°14' E 139°47'1110.8
2016-Sep-25 16:33N 35°03' E 139°43'  
2016-Sep-23 09:33N 34°35' E 135°15'6 2.0
2016-Sep-23 06:33N 34°40' E 135°19'1 0.6
2016-Sep-23 04:29N 34°39' E 135°19'0 0.0
2016-Sep-23 03:23N 34°39' E 135°19'3 3.3
2016-Sep-23 02:33N 34°41' E 135°18'0 0.3
2016-Sep-23 01:28N 34°41' E 135°17'0 0.0
2016-Sep-23 00:32N 34°41' E 135°17'3 3.1
2016-Sep-22 23:33N 34°39' E 135°15'2 0.7
2016-Sep-22 20:29N 34°41' E 135°17'0 0.0
2016-Sep-22 12:29N 34°41' E 135°17'0 0.0
2016-Sep-22 04:29N 34°41' E 135°17'0 0.0
2016-Sep-22 03:17N 34°41' E 135°17'0 0.0
2016-Sep-22 00:29N 34°41' E 135°17'0 0.0
2016-Sep-21 23:29N 34°41' E 135°17'3 2.8
2016-Sep-21 22:33N 34°38' E 135°16'28 9.3
2016-Sep-21 19:33N 34°14' E 135°00'  
2016-Sep-19 09:34N 35°13' E 139°46'12 6.1
2016-Sep-19 07:33N 35°24' E 139°41'0 0.0
2016-Sep-19 06:33N 35°24' E 139°41'3 1.0
2016-Sep-19 03:32N 35°22' E 139°44'0 0.0
2016-Sep-19 02:32N 35°22' E 139°44'0 0.0
2016-Sep-19 00:32N 35°22' E 139°44'0 0.0
2016-Sep-18 19:32N 35°22' E 139°44'0 0.0
2016-Sep-18 15:32N 35°22' E 139°44'0 0.0
2016-Sep-18 14:32N 35°22' E 139°44'0 0.0
2016-Sep-18 10:29N 35°22' E 139°44'0 0.0
2016-Sep-18 09:32N 35°22' E 139°44'0 0.0
2016-Sep-18 02:32N 35°22' E 139°44'0 0.0
2016-Sep-18 01:32N 35°22' E 139°44'0 0.1
2016-Sep-18 00:33N 35°22' E 139°44'20 9.9
2016-Sep-17 22:34N 35°02' E 139°43'1611.8
2016-Sep-17 21:13N 34°53' E 139°27'  
Track history (hours):
 
Tides and Currents Weather Stations Pressure Air Temp Water Temp Dewpoint Dewpoint Depression Visibility Wind Speed Wind Dir Waves Ship Positions

Daikoku

Last reported at 2016-Sep-26 19:33 UTC. Time now 2016-Sep-27 01:57 UTC.
Position N 34°58' E 139°27'.

Length 95 m; draft 4.2 m.

Type: Cargo ship. MMSI: 431003009.

Date/timePositionNaut miles runAvg speedWind from/ knotsBaromVisibWave heightAir tempDewpointWater temp
2016-Sep-26 19:33N 34°58' E 139°27'28 7.1
2016-Sep-26 15:31N 35°24' E 139°41'0 0.1
2016-Sep-26 13:33N 35°24' E 139°41'3 1.6
2016-Sep-26 11:33N 35°22' E 139°44'0 0.0
2016-Sep-26 08:15N 35°22' E 139°44'0 0.0
2016-Sep-26 02:33N 35°22' E 139°44'0 0.0
2016-Sep-26 01:33N 35°22' E 139°44'0 0.1
2016-Sep-26 00:33N 35°22' E 139°44'0 0.0
2016-Sep-25 21:33N 35°22' E 139°44'9 2.1
2016-Sep-25 17:33N 35°14' E 139°47'1110.8
2016-Sep-25 16:33N 35°03' E 139°43'  
2016-Sep-23 09:33N 34°35' E 135°15'6 2.0
2016-Sep-23 06:33N 34°40' E 135°19'1 0.6
2016-Sep-23 04:29N 34°39' E 135°19'0 0.0
2016-Sep-23 03:23N 34°39' E 135°19'3 3.3
2016-Sep-23 02:33N 34°41' E 135°18'0 0.3
2016-Sep-23 01:28N 34°41' E 135°17'0 0.0
2016-Sep-23 00:32N 34°41' E 135°17'3 3.1
2016-Sep-22 23:33N 34°39' E 135°15'2 0.7
2016-Sep-22 20:29N 34°41' E 135°17'0 0.0
2016-Sep-22 12:29N 34°41' E 135°17'0 0.0
2016-Sep-22 04:29N 34°41' E 135°17'0 0.0
2016-Sep-22 03:17N 34°41' E 135°17'0 0.0
2016-Sep-22 00:29N 34°41' E 135°17'0 0.0
2016-Sep-21 23:29N 34°41' E 135°17'3 2.8
2016-Sep-21 22:33N 34°38' E 135°16'28 9.3
2016-Sep-21 19:33N 34°14' E 135°00'  
2016-Sep-19 09:34N 35°13' E 139°46'12 6.1
2016-Sep-19 07:33N 35°24' E 139°41'0 0.0
2016-Sep-19 06:33N 35°24' E 139°41'3 1.0
2016-Sep-19 03:32N 35°22' E 139°44'0 0.0
2016-Sep-19 02:32N 35°22' E 139°44'0 0.0
2016-Sep-19 00:32N 35°22' E 139°44'0 0.0
2016-Sep-18 19:32N 35°22' E 139°44'0 0.0
2016-Sep-18 15:32N 35°22' E 139°44'0 0.0
2016-Sep-18 14:32N 35°22' E 139°44'0 0.0
2016-Sep-18 10:29N 35°22' E 139°44'0 0.0
2016-Sep-18 09:32N 35°22' E 139°44'0 0.0
2016-Sep-18 02:32N 35°22' E 139°44'0 0.0
2016-Sep-18 01:32N 35°22' E 139°44'0 0.1
2016-Sep-18 00:33N 35°22' E 139°44'20 9.9
2016-Sep-17 22:34N 35°02' E 139°43'1611.8
2016-Sep-17 21:13N 34°53' E 139°27'  

Dump ship's entire track history